sensor_id;sensor_type;location;lat;lon;timestamp;pressure;altitude;pressure_sealevel;temperature;humidity
62632;BME280;48703;51.248;-0.546;2023-05-01T00:00:32;101195;;;11.80;77.67
62632;BME280;48703;51.248;-0.546;2023-05-01T00:03:34;101192;;;11.78;78.11
62632;BME280;48703;51.248;-0.546;2023-05-01T00:06:36;101190;;;11.76;77.95
62632;BME280;48703;51.248;-0.546;2023-05-01T00:09:38;101190;;;11.74;78.08
62632;BME280;48703;51.248;-0.546;2023-05-01T00:12:40;101195;;;11.73;78.63
62632;BME280;48703;51.248;-0.546;2023-05-01T00:15:42;101199;;;11.72;78.56
62632;BME280;48703;51.248;-0.546;2023-05-01T00:18:44;101196;;;11.71;78.33
62632;BME280;48703;51.248;-0.546;2023-05-01T00:21:47;101193;;;11.68;78.54
62632;BME280;48703;51.248;-0.546;2023-05-01T00:24:48;101193;;;11.66;78.55
62632;BME280;48703;51.248;-0.546;2023-05-01T00:27:50;101191;;;11.65;78.63
62632;BME280;48703;51.248;-0.546;2023-05-01T00:30:52;101184;;;11.65;78.25
62632;BME280;48703;51.248;-0.546;2023-05-01T00:33:54;101181;;;11.64;78.14
62632;BME280;48703;51.248;-0.546;2023-05-01T00:36:56;101178;;;11.60;78.27
62632;BME280;48703;51.248;-0.546;2023-05-01T00:39:58;101172;;;11.57;78.74
62632;BME280;48703;51.248;-0.546;2023-05-01T00:43:01;101167;;;11.53;78.73
62632;BME280;48703;51.248;-0.546;2023-05-01T00:46:03;101157;;;11.51;79.49
62632;BME280;48703;51.248;-0.546;2023-05-01T00:49:04;101153;;;11.47;79.77
62632;BME280;48703;51.248;-0.546;2023-05-01T00:52:07;101147;;;11.44;80.07
62632;BME280;48703;51.248;-0.546;2023-05-01T00:55:09;101145;;;11.43;79.97
62632;BME280;48703;51.248;-0.546;2023-05-01T00:58:11;101140;;;11.42;79.91
62632;BME280;48703;51.248;-0.546;2023-05-01T01:01:13;101136;;;11.42;79.97
62632;BME280;48703;51.248;-0.546;2023-05-01T01:04:15;101134;;;11.40;80.52
62632;BME280;48703;51.248;-0.546;2023-05-01T01:07:17;101132;;;11.39;80.56
62632;BME280;48703;51.248;-0.546;2023-05-01T01:10:22;101132;;;11.37;80.16
62632;BME280;48703;51.248;-0.546;2023-05-01T01:13:24;101133;;;11.37;80.18
62632;BME280;48703;51.248;-0.546;2023-05-01T01:16:26;101130;;;11.36;80.25
62632;BME280;48703;51.248;-0.546;2023-05-01T01:19:39;101128;;;11.35;81.01
62632;BME280;48703;51.248;-0.546;2023-05-01T01:22:27;101121;;;11.34;80.60
62632;BME280;48703;51.248;-0.546;2023-05-01T01:25:37;101114;;;11.33;80.99
62632;BME280;48703;51.248;-0.546;2023-05-01T01:28:37;101107;;;11.33;81.32
62632;BME280;48703;51.248;-0.546;2023-05-01T01:31:35;101097;;;11.32;81.06
62632;BME280;48703;51.248;-0.546;2023-05-01T01:34:35;101090;;;11.31;81.18
62632;BME280;48703;51.248;-0.546;2023-05-01T01:37:39;101089;;;11.28;81.59
62632;BME280;48703;51.248;-0.546;2023-05-01T01:40:44;101086;;;11.26;81.44
62632;BME280;48703;51.248;-0.546;2023-05-01T01:43:42;101087;;;11.25;81.55
62632;BME280;48703;51.248;-0.546;2023-05-01T01:46:43;101082;;;11.22;81.31
62632;BME280;48703;51.248;-0.546;2023-05-01T01:49:47;101081;;;11.20;81.39
62632;BME280;48703;51.248;-0.546;2023-05-01T01:52:48;101078;;;11.17;81.67
62632;BME280;48703;51.248;-0.546;2023-05-01T01:55:49;101081;;;11.15;81.94
62632;BME280;48703;51.248;-0.546;2023-05-01T01:58:51;101075;;;11.14;82.00
62632;BME280;48703;51.248;-0.546;2023-05-01T02:01:53;101071;;;11.11;82.19
62632;BME280;48703;51.248;-0.546;2023-05-01T02:04:55;101064;;;11.08;82.43
62632;BME280;48703;51.248;-0.546;2023-05-01T02:07:57;101063;;;11.05;82.53
62632;BME280;48703;51.248;-0.546;2023-05-01T02:10:59;101061;;;11.05;82.55
62632;BME280;48703;51.248;-0.546;2023-05-01T02:14:01;101054;;;11.03;82.64
62632;BME280;48703;51.248;-0.546;2023-05-01T02:17:03;101053;;;11.03;82.76
62632;BME280;48703;51.248;-0.546;2023-05-01T02:20:05;101057;;;11.01;82.91
62632;BME280;48703;51.248;-0.546;2023-05-01T02:23:07;101056;;;11.00;82.84
62632;BME280;48703;51.248;-0.546;2023-05-01T02:26:09;101050;;;10.98;83.56
62632;BME280;48703;51.248;-0.546;2023-05-01T02:29:11;101049;;;10.96;83.81
62632;BME280;48703;51.248;-0.546;2023-05-01T02:32:13;101049;;;10.95;83.46
62632;BME280;48703;51.248;-0.546;2023-05-01T02:35:15;101047;;;10.95;83.51
62632;BME280;48703;51.248;-0.546;2023-05-01T02:38:17;101044;;;10.95;83.73
62632;BME280;48703;51.248;-0.546;2023-05-01T02:41:19;101046;;;10.95;83.91
62632;BME280;48703;51.248;-0.546;2023-05-01T02:44:21;101050;;;10.96;83.76
62632;BME280;48703;51.248;-0.546;2023-05-01T02:47:23;101050;;;10.96;84.05
62632;BME280;48703;51.248;-0.546;2023-05-01T02:50:25;101047;;;10.95;84.31
62632;BME280;48703;51.248;-0.546;2023-05-01T02:53:27;101050;;;10.94;84.60
62632;BME280;48703;51.248;-0.546;2023-05-01T02:56:29;101049;;;10.93;84.44
62632;BME280;48703;51.248;-0.546;2023-05-01T02:59:31;101047;;;10.91;84.98
62632;BME280;48703;51.248;-0.546;2023-05-01T03:02:33;101046;;;10.90;84.98
62632;BME280;48703;51.248;-0.546;2023-05-01T03:05:36;101045;;;10.90;85.57
62632;BME280;48703;51.248;-0.546;2023-05-01T03:08:38;101042;;;10.91;86.61
62632;BME280;48703;51.248;-0.546;2023-05-01T03:11:40;101043;;;10.92;85.76
62632;BME280;48703;51.248;-0.546;2023-05-01T03:14:42;101044;;;10.90;87.22
62632;BME280;48703;51.248;-0.546;2023-05-01T03:17:44;101039;;;10.89;87.10
62632;BME280;48703;51.248;-0.546;2023-05-01T03:20:53;101038;;;10.85;87.56
62632;BME280;48703;51.248;-0.546;2023-05-01T03:23:48;101040;;;10.86;87.57
62632;BME280;48703;51.248;-0.546;2023-05-01T03:26:50;101038;;;10.88;87.26
62632;BME280;48703;51.248;-0.546;2023-05-01T03:29:52;101040;;;10.86;87.86
62632;BME280;48703;51.248;-0.546;2023-05-01T03:32:54;101042;;;10.85;88.03
62632;BME280;48703;51.248;-0.546;2023-05-01T03:35:59;101040;;;10.85;87.85
62632;BME280;48703;51.248;-0.546;2023-05-01T03:38:58;101043;;;10.85;88.31
62632;BME280;48703;51.248;-0.546;2023-05-01T03:42:00;101040;;;10.85;87.58
62632;BME280;48703;51.248;-0.546;2023-05-01T03:45:02;101042;;;10.86;87.75
62632;BME280;48703;51.248;-0.546;2023-05-01T03:48:04;101039;;;10.88;87.23
62632;BME280;48703;51.248;-0.546;2023-05-01T03:51:06;101038;;;10.89;87.11
62632;BME280;48703;51.248;-0.546;2023-05-01T03:54:08;101038;;;10.88;88.10
62632;BME280;48703;51.248;-0.546;2023-05-01T03:57:10;101037;;;10.86;87.51
62632;BME280;48703;51.248;-0.546;2023-05-01T04:00:12;101033;;;10.86;86.84
62632;BME280;48703;51.248;-0.546;2023-05-01T04:03:14;101030;;;10.87;86.37
62632;BME280;48703;51.248;-0.546;2023-05-01T04:06:16;101030;;;10.86;86.39
62632;BME280;48703;51.248;-0.546;2023-05-01T04:09:18;101031;;;10.86;86.47
62632;BME280;48703;51.248;-0.546;2023-05-01T04:12:20;101032;;;10.87;86.21
62632;BME280;48703;51.248;-0.546;2023-05-01T04:15:22;101029;;;10.87;86.03
62632;BME280;48703;51.248;-0.546;2023-05-01T04:18:24;101029;;;10.86;86.40
62632;BME280;48703;51.248;-0.546;2023-05-01T04:21:26;101024;;;10.85;85.79
62632;BME280;48703;51.248;-0.546;2023-05-01T04:24:28;101025;;;10.83;85.09
62632;BME280;48703;51.248;-0.546;2023-05-01T04:27:30;101035;;;10.81;85.18
62632;BME280;48703;51.248;-0.546;2023-05-01T04:30:32;101039;;;10.78;84.62
62632;BME280;48703;51.248;-0.546;2023-05-01T04:33:34;101033;;;10.73;84.74
62632;BME280;48703;51.248;-0.546;2023-05-01T04:36:36;101028;;;10.69;84.47
62632;BME280;48703;51.248;-0.546;2023-05-01T04:39:38;101033;;;10.64;84.40
62632;BME280;48703;51.248;-0.546;2023-05-01T04:42:40;101035;;;10.59;84.44
62632;BME280;48703;51.248;-0.546;2023-05-01T04:45:42;101032;;;10.54;84.42
62632;BME280;48703;51.248;-0.546;2023-05-01T04:48:44;101039;;;10.53;84.76
62632;BME280;48703;51.248;-0.546;2023-05-01T04:51:46;101045;;;10.51;84.85
62632;BME280;48703;51.248;-0.546;2023-05-01T04:54:48;101043;;;10.49;84.79
62632;BME280;48703;51.248;-0.546;2023-05-01T04:57:50;101044;;;10.47;85.21
62632;BME280;48703;51.248;-0.546;2023-05-01T05:00:52;101044;;;10.45;85.30
62632;BME280;48703;51.248;-0.546;2023-05-01T05:03:54;101046;;;10.47;85.05
62632;BME280;48703;51.248;-0.546;2023-05-01T05:06:56;101045;;;10.46;85.55
62632;BME280;48703;51.248;-0.546;2023-05-01T05:09:58;101046;;;10.47;85.18
62632;BME280;48703;51.248;-0.546;2023-05-01T05:13:00;101048;;;10.49;84.95
62632;BME280;48703;51.248;-0.546;2023-05-01T05:16:03;101047;;;10.49;85.13
62632;BME280;48703;51.248;-0.546;2023-05-01T05:19:04;101045;;;10.51;84.68
62632;BME280;48703;51.248;-0.546;2023-05-01T05:22:06;101044;;;10.52;84.79
62632;BME280;48703;51.248;-0.546;2023-05-01T05:25:08;101044;;;10.53;85.12
62632;BME280;48703;51.248;-0.546;2023-05-01T05:28:10;101045;;;10.54;85.12
62632;BME280;48703;51.248;-0.546;2023-05-01T05:31:12;101044;;;10.53;84.85
62632;BME280;48703;51.248;-0.546;2023-05-01T05:34:14;101044;;;10.54;85.25
62632;BME280;48703;51.248;-0.546;2023-05-01T05:37:16;101046;;;10.59;85.38
62632;BME280;48703;51.248;-0.546;2023-05-01T05:40:18;101045;;;10.60;85.11
62632;BME280;48703;51.248;-0.546;2023-05-01T05:43:21;101044;;;10.59;85.56
62632;BME280;48703;51.248;-0.546;2023-05-01T05:46:23;101044;;;10.60;85.46
62632;BME280;48703;51.248;-0.546;2023-05-01T05:49:25;101046;;;10.64;85.21
62632;BME280;48703;51.248;-0.546;2023-05-01T05:52:27;101050;;;10.65;85.27
62632;BME280;48703;51.248;-0.546;2023-05-01T05:55:29;101053;;;10.66;85.25
62632;BME280;48703;51.248;-0.546;2023-05-01T05:58:31;101053;;;10.64;84.70
62632;BME280;48703;51.248;-0.546;2023-05-01T06:01:33;101056;;;10.65;84.93
62632;BME280;48703;51.248;-0.546;2023-05-01T06:04:35;101055;;;10.65;84.84
62632;BME280;48703;51.248;-0.546;2023-05-01T06:07:37;101055;;;10.68;85.34
62632;BME280;48703;51.248;-0.546;2023-05-01T06:10:40;101051;;;10.69;85.10
62632;BME280;48703;51.248;-0.546;2023-05-01T06:13:41;101050;;;10.68;85.16
62632;BME280;48703;51.248;-0.546;2023-05-01T06:16:43;101055;;;10.69;85.05
62632;BME280;48703;51.248;-0.546;2023-05-01T06:19:45;101057;;;10.69;84.77
62632;BME280;48703;51.248;-0.546;2023-05-01T06:22:47;101061;;;10.69;84.97
62632;BME280;48703;51.248;-0.546;2023-05-01T06:25:49;101061;;;10.73;85.20
62632;BME280;48703;51.248;-0.546;2023-05-01T06:28:51;101064;;;10.76;85.36
62632;BME280;48703;51.248;-0.546;2023-05-01T06:31:53;101066;;;10.79;85.02
62632;BME280;48703;51.248;-0.546;2023-05-01T06:34:55;101067;;;10.81;85.21
62632;BME280;48703;51.248;-0.546;2023-05-01T06:37:57;101068;;;10.85;85.38
62632;BME280;48703;51.248;-0.546;2023-05-01T06:40:59;101068;;;10.86;85.30
62632;BME280;48703;51.248;-0.546;2023-05-01T06:44:01;101065;;;10.85;85.60
62632;BME280;48703;51.248;-0.546;2023-05-01T06:47:03;101065;;;10.84;85.62
62632;BME280;48703;51.248;-0.546;2023-05-01T06:50:05;101064;;;10.83;86.01
62632;BME280;48703;51.248;-0.546;2023-05-01T06:53:07;101063;;;10.83;85.90
62632;BME280;48703;51.248;-0.546;2023-05-01T06:56:09;101058;;;10.84;86.15
62632;BME280;48703;51.248;-0.546;2023-05-01T06:59:11;101057;;;10.92;86.10
62632;BME280;48703;51.248;-0.546;2023-05-01T07:02:13;101060;;;10.95;85.90
62632;BME280;48703;51.248;-0.546;2023-05-01T07:05:15;101061;;;11.03;85.61
62632;BME280;48703;51.248;-0.546;2023-05-01T07:08:17;101067;;;11.10;85.75
62632;BME280;48703;51.248;-0.546;2023-05-01T07:11:19;101070;;;11.15;85.36
62632;BME280;48703;51.248;-0.546;2023-05-01T07:14:21;101068;;;11.19;85.35
62632;BME280;48703;51.248;-0.546;2023-05-01T07:17:24;101069;;;11.25;85.11
62632;BME280;48703;51.248;-0.546;2023-05-01T07:20:25;101076;;;11.30;84.77
62632;BME280;48703;51.248;-0.546;2023-05-01T07:23:27;101079;;;11.35;84.81
62632;BME280;48703;51.248;-0.546;2023-05-01T07:29:31;101084;;;11.51;85.15
62632;BME280;48703;51.248;-0.546;2023-05-01T07:32:33;101083;;;11.58;84.51
62632;BME280;48703;51.248;-0.546;2023-05-01T07:35:35;101088;;;11.68;84.43
62632;BME280;48703;51.248;-0.546;2023-05-01T07:38:37;101089;;;11.75;84.18
62632;BME280;48703;51.248;-0.546;2023-05-01T07:41:39;101083;;;11.87;83.79
62632;BME280;48703;51.248;-0.546;2023-05-01T07:44:41;101088;;;11.95;83.07
62632;BME280;48703;51.248;-0.546;2023-05-01T07:47:43;101089;;;12.03;82.78
62632;BME280;48703;51.248;-0.546;2023-05-01T07:50:45;101089;;;12.12;83.11
62632;BME280;48703;51.248;-0.546;2023-05-01T07:53:47;101090;;;12.19;82.49
62632;BME280;48703;51.248;-0.546;2023-05-01T07:56:49;101091;;;12.26;82.37
62632;BME280;48703;51.248;-0.546;2023-05-01T07:59:52;101095;;;12.25;81.09
62632;BME280;48703;51.248;-0.546;2023-05-01T08:02:54;101095;;;12.22;81.71
62632;BME280;48703;51.248;-0.546;2023-05-01T08:05:56;101098;;;12.28;82.27
62632;BME280;48703;51.248;-0.546;2023-05-01T08:08:58;101099;;;12.31;81.26
62632;BME280;48703;51.248;-0.546;2023-05-01T08:12:00;101097;;;12.32;81.05
62632;BME280;48703;51.248;-0.546;2023-05-01T08:15:02;101095;;;12.37;81.69
62632;BME280;48703;51.248;-0.546;2023-05-01T08:18:04;101094;;;12.39;81.40
62632;BME280;48703;51.248;-0.546;2023-05-01T08:21:06;101085;;;12.48;81.88
62632;BME280;48703;51.248;-0.546;2023-05-01T08:24:08;101089;;;12.54;81.44
62632;BME280;48703;51.248;-0.546;2023-05-01T08:27:10;101091;;;12.59;81.38
62632;BME280;48703;51.248;-0.546;2023-05-01T08:30:12;101092;;;12.66;81.62
62632;BME280;48703;51.248;-0.546;2023-05-01T08:33:14;101092;;;12.70;80.99
62632;BME280;48703;51.248;-0.546;2023-05-01T08:36:16;101090;;;12.76;81.08
62632;BME280;48703;51.248;-0.546;2023-05-01T08:39:18;101092;;;12.82;80.53
62632;BME280;48703;51.248;-0.546;2023-05-01T08:42:20;101095;;;12.87;80.16
62632;BME280;48703;51.248;-0.546;2023-05-01T08:45:22;101095;;;12.89;79.97
62632;BME280;48703;51.248;-0.546;2023-05-01T08:48:24;101096;;;12.90;79.82
62632;BME280;48703;51.248;-0.546;2023-05-01T08:51:26;101097;;;12.87;80.08
62632;BME280;48703;51.248;-0.546;2023-05-01T08:54:28;101097;;;12.90;80.79
62632;BME280;48703;51.248;-0.546;2023-05-01T08:57:30;101101;;;12.87;80.29
62632;BME280;48703;51.248;-0.546;2023-05-01T09:00:33;101101;;;12.82;80.33
62632;BME280;48703;51.248;-0.546;2023-05-01T09:03:34;101105;;;12.84;80.71
62632;BME280;48703;51.248;-0.546;2023-05-01T09:06:36;101107;;;12.88;80.69
62632;BME280;48703;51.248;-0.546;2023-05-01T09:09:38;101109;;;12.92;80.68
62632;BME280;48703;51.248;-0.546;2023-05-01T09:12:40;101112;;;12.93;80.47
62632;BME280;48703;51.248;-0.546;2023-05-01T09:15:42;101116;;;12.94;80.44
62632;BME280;48703;51.248;-0.546;2023-05-01T09:18:44;101122;;;12.93;80.60
62632;BME280;48703;51.248;-0.546;2023-05-01T09:21:46;101123;;;12.90;80.08
62632;BME280;48703;51.248;-0.546;2023-05-01T09:24:48;101127;;;12.92;80.46
62632;BME280;48703;51.248;-0.546;2023-05-01T09:27:50;101131;;;12.92;80.42
62632;BME280;48703;51.248;-0.546;2023-05-01T09:30:52;101132;;;12.91;80.65
62632;BME280;48703;51.248;-0.546;2023-05-01T09:33:54;101135;;;12.94;80.91
62632;BME280;48703;51.248;-0.546;2023-05-01T09:36:56;101138;;;12.94;80.03
62632;BME280;48703;51.248;-0.546;2023-05-01T09:40:01;101139;;;13.00;80.59
62632;BME280;48703;51.248;-0.546;2023-05-01T09:43:00;101138;;;13.09;80.55
62632;BME280;48703;51.248;-0.546;2023-05-01T09:46:03;101139;;;13.20;80.25
62632;BME280;48703;51.248;-0.546;2023-05-01T09:49:04;101142;;;13.29;79.80
62632;BME280;48703;51.248;-0.546;2023-05-01T09:52:09;101142;;;13.30;79.39
62632;BME280;48703;51.248;-0.546;2023-05-01T09:55:12;101143;;;13.40;80.37
62632;BME280;48703;51.248;-0.546;2023-05-01T09:58:18;101140;;;13.47;79.19
62632;BME280;48703;51.248;-0.546;2023-05-01T10:01:12;101144;;;13.51;79.34
62632;BME280;48703;51.248;-0.546;2023-05-01T10:04:14;101147;;;13.59;79.62
62632;BME280;48703;51.248;-0.546;2023-05-01T10:07:16;101147;;;13.67;79.19
62632;BME280;48703;51.248;-0.546;2023-05-01T10:10:19;101147;;;13.76;79.09
62632;BME280;48703;51.248;-0.546;2023-05-01T10:13:20;101142;;;13.89;78.58
62632;BME280;48703;51.248;-0.546;2023-05-01T10:16:30;101145;;;14.02;78.16
62632;BME280;48703;51.248;-0.546;2023-05-01T10:19:24;101144;;;14.04;77.68
62632;BME280;48703;51.248;-0.546;2023-05-01T10:22:26;101144;;;14.07;75.92
62632;BME280;48703;51.248;-0.546;2023-05-01T10:25:28;101148;;;14.06;75.90
62632;BME280;48703;51.248;-0.546;2023-05-01T10:28:30;101148;;;14.01;76.36
62632;BME280;48703;51.248;-0.546;2023-05-01T10:31:32;101150;;;13.96;78.69
62632;BME280;48703;51.248;-0.546;2023-05-01T10:34:37;101149;;;13.91;79.10
62632;BME280;48703;51.248;-0.546;2023-05-01T10:37:38;101148;;;13.82;81.38
62632;BME280;48703;51.248;-0.546;2023-05-01T10:40:42;101144;;;13.72;81.49
62632;BME280;48703;51.248;-0.546;2023-05-01T10:43:41;101145;;;13.71;82.96
62632;BME280;48703;51.248;-0.546;2023-05-01T10:46:43;101147;;;13.76;82.06
62632;BME280;48703;51.248;-0.546;2023-05-01T10:50:17;101145;;;13.81;82.41
62632;BME280;48703;51.248;-0.546;2023-05-01T10:53:19;101141;;;13.94;84.20
62632;BME280;48703;51.248;-0.546;2023-05-01T10:55:49;101137;;;14.03;79.89
62632;BME280;48703;51.248;-0.546;2023-05-01T10:58:55;101133;;;14.10;79.29
62632;BME280;48703;51.248;-0.546;2023-05-01T11:01:53;101134;;;14.07;77.27
62632;BME280;48703;51.248;-0.546;2023-05-01T11:04:55;101137;;;14.12;78.47
62632;BME280;48703;51.248;-0.546;2023-05-01T11:08:27;101130;;;14.15;78.35
62632;BME280;48703;51.248;-0.546;2023-05-01T11:11:06;101132;;;14.20;80.03
62632;BME280;48703;51.248;-0.546;2023-05-01T11:14:01;101129;;;14.29;79.60
62632;BME280;48703;51.248;-0.546;2023-05-01T11:17:03;101128;;;14.41;78.85
62632;BME280;48703;51.248;-0.546;2023-05-01T11:20:05;101130;;;14.56;78.46
62632;BME280;48703;51.248;-0.546;2023-05-01T11:23:07;101128;;;14.64;76.56
62632;BME280;48703;51.248;-0.546;2023-05-01T11:26:09;101128;;;14.66;75.92
62632;BME280;48703;51.248;-0.546;2023-05-01T11:29:11;101126;;;14.64;75.62
62632;BME280;48703;51.248;-0.546;2023-05-01T11:32:14;101119;;;14.68;75.24
62632;BME280;48703;51.248;-0.546;2023-05-01T11:35:16;101119;;;14.83;76.56
62632;BME280;48703;51.248;-0.546;2023-05-01T11:38:17;101120;;;14.95;76.52
62632;BME280;48703;51.248;-0.546;2023-05-01T11:41:19;101120;;;15.10;70.94
62632;BME280;48703;51.248;-0.546;2023-05-01T11:44:21;101124;;;15.27;67.40
62632;BME280;48703;51.248;-0.546;2023-05-01T11:47:23;101122;;;15.34;66.04
62632;BME280;48703;51.248;-0.546;2023-05-01T11:50:30;101123;;;15.42;67.27
62632;BME280;48703;51.248;-0.546;2023-05-01T11:53:27;101125;;;15.50;65.58
62632;BME280;48703;51.248;-0.546;2023-05-01T11:56:30;101125;;;15.62;64.92
62632;BME280;48703;51.248;-0.546;2023-05-01T11:59:31;101125;;;15.71;63.47
62632;BME280;48703;51.248;-0.546;2023-05-01T12:02:33;101119;;;15.73;64.46
62632;BME280;48703;51.248;-0.546;2023-05-01T12:05:36;101127;;;15.69;63.48
62632;BME280;48703;51.248;-0.546;2023-05-01T12:08:40;101130;;;15.64;65.09
62632;BME280;48703;51.248;-0.546;2023-05-01T12:11:39;101135;;;15.63;64.93
62632;BME280;48703;51.248;-0.546;2023-05-01T12:14:41;101135;;;15.60;65.19
62632;BME280;48703;51.248;-0.546;2023-05-01T12:17:43;101138;;;15.57;64.76
62632;BME280;48703;51.248;-0.546;2023-05-01T12:20:46;101136;;;15.46;66.45
62632;BME280;48703;51.248;-0.546;2023-05-01T12:23:47;101139;;;15.43;67.27
62632;BME280;48703;51.248;-0.546;2023-05-01T12:26:51;101138;;;15.39;67.51
62632;BME280;48703;51.248;-0.546;2023-05-01T12:29:51;101142;;;15.45;67.23
62632;BME280;48703;51.248;-0.546;2023-05-01T12:32:54;101142;;;15.44;66.73
62632;BME280;48703;51.248;-0.546;2023-05-01T12:36:07;101143;;;15.41;67.01
62632;BME280;48703;51.248;-0.546;2023-05-01T12:38:58;101146;;;15.37;70.07
62632;BME280;48703;51.248;-0.546;2023-05-01T12:41:59;101151;;;15.36;72.78
62632;BME280;48703;51.248;-0.546;2023-05-01T12:45:01;101154;;;15.32;71.68
62632;BME280;48703;51.248;-0.546;2023-05-01T12:48:08;101162;;;15.28;72.63
62632;BME280;48703;51.248;-0.546;2023-05-01T12:51:05;101168;;;15.25;70.99
62632;BME280;48703;51.248;-0.546;2023-05-01T12:54:07;101169;;;15.23;69.20
62632;BME280;48703;51.248;-0.546;2023-05-01T12:57:10;101169;;;15.31;69.26
62632;BME280;48703;51.248;-0.546;2023-05-01T13:00:12;101165;;;15.44;67.09
62632;BME280;48703;51.248;-0.546;2023-05-01T13:03:14;101165;;;15.49;66.94
62632;BME280;48703;51.248;-0.546;2023-05-01T13:06:15;101182;;;15.50;67.64
62632;BME280;48703;51.248;-0.546;2023-05-01T13:09:17;101183;;;15.39;65.09
62632;BME280;48703;51.248;-0.546;2023-05-01T13:12:20;101184;;;15.24;65.05
62632;BME280;48703;51.248;-0.546;2023-05-01T13:15:21;101182;;;15.15;66.98
62632;BME280;48703;51.248;-0.546;2023-05-01T13:18:24;101179;;;15.09;66.33
62632;BME280;48703;51.248;-0.546;2023-05-01T13:21:25;101183;;;15.05;66.84
62632;BME280;48703;51.248;-0.546;2023-05-01T13:24:37;101184;;;15.01;65.78
62632;BME280;48703;51.248;-0.546;2023-05-01T13:27:30;101183;;;15.01;66.28
62632;BME280;48703;51.248;-0.546;2023-05-01T13:30:32;101184;;;15.17;66.48
62632;BME280;48703;51.248;-0.546;2023-05-01T13:33:34;101183;;;15.29;65.30
62632;BME280;48703;51.248;-0.546;2023-05-01T13:36:36;101181;;;15.48;67.11
62632;BME280;48703;51.248;-0.546;2023-05-01T13:39:38;101177;;;15.66;66.37
62632;BME280;48703;51.248;-0.546;2023-05-01T13:42:40;101176;;;15.88;66.05
62632;BME280;48703;51.248;-0.546;2023-05-01T13:45:42;101180;;;16.07;65.71
62632;BME280;48703;51.248;-0.546;2023-05-01T13:48:44;101176;;;16.24;63.01
62632;BME280;48703;51.248;-0.546;2023-05-01T13:51:46;101180;;;16.35;63.60
62632;BME280;48703;51.248;-0.546;2023-05-01T13:54:48;101189;;;16.38;60.05
62632;BME280;48703;51.248;-0.546;2023-05-01T13:57:50;101189;;;16.31;62.02
62632;BME280;48703;51.248;-0.546;2023-05-01T14:00:52;101192;;;16.22;62.32
62632;BME280;48703;51.248;-0.546;2023-05-01T14:03:54;101194;;;16.09;63.06
62632;BME280;48703;51.248;-0.546;2023-05-01T14:06:56;101196;;;15.98;64.53
62632;BME280;48703;51.248;-0.546;2023-05-01T14:09:58;101197;;;15.87;64.97
62632;BME280;48703;51.248;-0.546;2023-05-01T14:13:00;101200;;;15.76;64.52
62632;BME280;48703;51.248;-0.546;2023-05-01T14:16:04;101203;;;15.70;65.08
62632;BME280;48703;51.248;-0.546;2023-05-01T14:19:04;101202;;;15.66;66.43
62632;BME280;48703;51.248;-0.546;2023-05-01T14:22:06;101205;;;15.65;66.73
62632;BME280;48703;51.248;-0.546;2023-05-01T14:25:14;101204;;;15.65;68.22
62632;BME280;48703;51.248;-0.546;2023-05-01T14:28:10;101205;;;15.75;69.09
62632;BME280;48703;51.248;-0.546;2023-05-01T14:31:14;101207;;;15.86;69.21
62632;BME280;48703;51.248;-0.546;2023-05-01T14:34:14;101206;;;15.99;69.55
62632;BME280;48703;51.248;-0.546;2023-05-01T14:37:16;101207;;;16.16;68.62
62632;BME280;48703;51.248;-0.546;2023-05-01T14:40:21;101207;;;16.29;66.03
62632;BME280;48703;51.248;-0.546;2023-05-01T14:43:20;101208;;;16.46;65.92
62632;BME280;48703;51.248;-0.546;2023-05-01T14:46:26;101202;;;16.59;65.97
62632;BME280;48703;51.248;-0.546;2023-05-01T14:49:24;101194;;;16.69;63.21
62632;BME280;48703;51.248;-0.546;2023-05-01T14:52:26;101199;;;16.75;62.60
62632;BME280;48703;51.248;-0.546;2023-05-01T14:55:29;101195;;;16.77;61.89
62632;BME280;48703;51.248;-0.546;2023-05-01T14:58:30;101194;;;16.74;61.54
62632;BME280;48703;51.248;-0.546;2023-05-01T15:01:32;101191;;;16.69;62.01
62632;BME280;48703;51.248;-0.546;2023-05-01T15:04:34;101193;;;16.67;61.51
62632;BME280;48703;51.248;-0.546;2023-05-01T15:07:36;101196;;;16.58;61.44
62632;BME280;48703;51.248;-0.546;2023-05-01T15:10:38;101198;;;16.53;61.60
62632;BME280;48703;51.248;-0.546;2023-05-01T15:13:40;101203;;;16.50;60.43
62632;BME280;48703;51.248;-0.546;2023-05-01T15:16:42;101204;;;16.41;57.52
62632;BME280;48703;51.248;-0.546;2023-05-01T15:19:44;101208;;;16.36;58.03
62632;BME280;48703;51.248;-0.546;2023-05-01T15:22:46;101214;;;16.29;56.72
62632;BME280;48703;51.248;-0.546;2023-05-01T15:25:48;101216;;;16.34;58.44
62632;BME280;48703;51.248;-0.546;2023-05-01T15:28:50;101220;;;16.37;59.04
62632;BME280;48703;51.248;-0.546;2023-05-01T15:31:52;101216;;;16.37;59.10
62632;BME280;48703;51.248;-0.546;2023-05-01T15:34:54;101215;;;16.36;59.30
62632;BME280;48703;51.248;-0.546;2023-05-01T15:37:56;101215;;;16.39;59.76
62632;BME280;48703;51.248;-0.546;2023-05-01T15:40:58;101216;;;16.38;59.37
62632;BME280;48703;51.248;-0.546;2023-05-01T15:44:00;101214;;;16.41;60.63
62632;BME280;48703;51.248;-0.546;2023-05-01T15:47:02;101215;;;16.52;60.89
62632;BME280;48703;51.248;-0.546;2023-05-01T15:50:05;101218;;;16.56;60.96
62632;BME280;48703;51.248;-0.546;2023-05-01T15:53:06;101220;;;16.57;60.39
62632;BME280;48703;51.248;-0.546;2023-05-01T15:56:09;101223;;;16.64;60.63
62632;BME280;48703;51.248;-0.546;2023-05-01T15:59:11;101228;;;16.62;60.17
62632;BME280;48703;51.248;-0.546;2023-05-01T16:02:13;101227;;;16.63;61.38
62632;BME280;48703;51.248;-0.546;2023-05-01T16:05:15;101230;;;16.75;61.12
62632;BME280;48703;51.248;-0.546;2023-05-01T16:08:17;101229;;;16.85;59.67
62632;BME280;48703;51.248;-0.546;2023-05-01T16:11:19;101229;;;17.01;60.19
62632;BME280;48703;51.248;-0.546;2023-05-01T16:14:21;101229;;;17.16;60.82
62632;BME280;48703;51.248;-0.546;2023-05-01T16:17:23;101229;;;17.30;60.18